createdAt,value
2018-01-15T01:03:25.704Z,6.15
2018-01-15T01:05:53.138Z,4.95
2018-01-15T01:08:21.327Z,7.10
2018-01-15T01:10:50.484Z,7.45
2018-01-15T03:09:07.204Z,4.43
2018-01-15T03:11:36.522Z,7.15
2018-01-15T03:14:05.885Z,4.90
2018-01-15T03:19:29.186Z,7.10
2018-01-15T03:21:56.664Z,7.40
2018-01-15T03:24:25.877Z,7.60
2018-01-15T03:44:23.014Z,6.20
2018-01-15T03:46:51.348Z,7.40
2018-01-15T03:49:21.196Z,7.50
2018-01-15T03:51:49.576Z,6.60
2018-01-15T03:54:19.357Z,7.25
2018-01-15T03:56:51.764Z,7.25
2018-01-15T03:59:19.499Z,6.10
2018-01-15T04:01:48.586Z,7.20
2018-01-15T04:04:16.063Z,7.32
2018-01-15T04:06:44.913Z,7.87
2018-01-15T04:09:12.747Z,5.93
2018-01-15T04:11:40.193Z,8.38
2018-01-15T04:19:38.954Z,8.90
2018-01-15T04:22:07.259Z,8.48
2018-01-15T04:24:36.721Z,8.38
2018-01-15T04:27:05.087Z,8.52
2018-01-15T04:29:32.548Z,6.20
2018-01-15T04:32:00.007Z,7.95
2018-01-15T04:34:28.950Z,6.70
2018-01-15T04:36:57.887Z,7.18
2018-01-15T04:39:27.442Z,7.85
2018-01-15T04:41:55.311Z,8.40
2018-01-15T04:44:23.890Z,8.25
2018-01-15T04:46:51.331Z,6.97
2018-01-15T04:49:18.783Z,8.00
2018-01-15T04:51:46.261Z,8.60
2018-01-15T04:54:13.717Z,6.72
2018-01-15T04:56:41.170Z,7.50
2018-01-15T04:59:12.849Z,7.87
2018-01-15T05:16:01.001Z,6.07
2018-01-15T05:18:28.454Z,8.35
2018-01-15T05:20:56.854Z,8.10
2018-01-15T05:23:24.309Z,9.73
2018-01-15T05:25:53.251Z,8.10
2018-01-15T05:28:20.702Z,7.40
2018-01-15T05:30:48.778Z,9.07
2018-01-15T05:33:16.198Z,7.97
2018-01-15T05:35:44.410Z,8.43
2018-01-15T05:38:11.869Z,8.15
2018-01-15T05:40:39.322Z,7.93
2018-01-15T05:43:06.790Z,8.57
2018-01-15T05:45:34.638Z,7.35
2018-01-15T05:48:02.074Z,7.32
2018-01-15T05:50:31.711Z,7.85
2018-01-15T05:52:59.993Z,8.27
2018-01-15T05:55:27.830Z,6.40
2018-01-15T05:57:56.902Z,8.27
2018-01-15T06:00:25.350Z,8.00
2018-01-15T06:02:53.662Z,6.35
2018-01-15T06:05:23.310Z,6.93
2018-01-15T06:07:55.281Z,7.32
2018-01-15T06:10:22.702Z,7.12
2018-01-15T06:12:52.118Z,7.22
2018-01-15T06:15:19.836Z,8.82
2018-01-15T06:17:47.662Z,7.47
2018-01-15T06:20:15.110Z,6.90
2018-01-15T06:22:43.278Z,9.55
2018-01-15T06:25:10.720Z,7.85
2018-01-15T06:27:38.926Z,8.40
2018-01-15T06:30:06.377Z,10.10
2018-01-15T06:32:34.631Z,7.53
2018-01-15T06:35:02.703Z,8.77
2018-01-15T06:37:30.162Z,8.82
2018-01-15T06:39:57.612Z,7.15
2018-01-15T06:42:25.719Z,7.72
2018-01-15T06:44:54.506Z,10.02
2018-01-15T06:47:28.724Z,10.23
2018-01-15T06:50:00.398Z,7.57
2018-01-15T06:52:27.849Z,8.27
2018-01-15T06:54:56.079Z,7.72
2018-01-15T06:57:24.243Z,8.63
2018-01-15T06:59:54.209Z,8.70
2018-01-15T07:02:44.930Z,8.50
2018-01-15T07:05:14.000Z,9.77
2018-01-15T07:07:44.279Z,8.98
2018-01-15T07:10:26.951Z,8.30
2018-01-15T07:13:09.184Z,9.45
2018-01-15T07:17:20.449Z,8.68
2018-01-15T07:41:16.486Z,5.78
2018-01-15T07:43:43.914Z,7.78
2018-01-15T07:46:11.366Z,8.80
2018-01-15T07:48:42.020Z,8.32
2018-01-15T07:51:11.171Z,8.15
2018-01-15T07:56:27.063Z,9.38
2018-01-15T07:58:56.188Z,9.70
2018-01-15T08:01:33.072Z,11.25
2018-01-15T08:04:00.552Z,10.15
2018-01-15T08:06:27.994Z,9.48
2018-01-15T08:08:55.450Z,9.20
2018-01-15T08:11:40.490Z,9.95
2018-01-15T08:14:08.341Z,11.68
2018-01-15T08:16:48.746Z,10.25
2018-01-15T08:19:18.790Z,9.35
2018-01-15T08:21:49.979Z,13.00
2018-01-15T08:24:47.495Z,11.50
2018-01-15T08:30:23.655Z,10.60
2018-01-15T09:12:20.396Z,12.20
2018-01-15T09:14:49.106Z,10.38
2018-01-15T09:17:18.335Z,11.75
2018-01-15T09:19:46.903Z,11.12
2018-01-15T09:22:16.818Z,12.95
2018-01-15T09:24:47.785Z,11.30
2018-01-15T09:27:15.851Z,11.12
2018-01-15T09:29:44.593Z,11.77
2018-01-15T09:32:12.014Z,9.27
2018-01-15T09:34:47.590Z,13.05
2018-01-15T09:48:52.703Z,11.65
2018-01-15T09:51:20.143Z,11.12
2018-01-15T09:53:51.816Z,11.77
2018-01-15T09:56:20.547Z,12.88
2018-01-15T09:58:49.126Z,11.65
2018-01-15T10:01:17.210Z,12.15
2018-01-15T10:06:20.586Z,12.15
2018-01-15T10:08:49.148Z,12.98
2018-01-15T10:11:21.645Z,12.45
2018-01-15T10:13:53.938Z,11.60
2018-01-15T10:16:23.228Z,12.25
2018-01-15T10:18:50.703Z,11.68
2018-01-15T10:21:20.715Z,11.88
2018-01-15T10:24:00.426Z,10.77
2018-01-15T10:26:27.876Z,12.43
2018-01-15T10:28:56.221Z,11.45
2018-01-15T10:31:51.999Z,13.68
2018-01-15T10:34:23.147Z,12.18
2018-01-15T10:36:56.802Z,12.60
2018-01-15T10:39:26.591Z,9.73
2018-01-15T10:41:54.119Z,12.43
2018-01-15T10:47:17.470Z,11.73
2018-01-15T10:49:55.042Z,10.45
2018-01-15T10:52:32.674Z,11.68
2018-01-15T10:57:52.872Z,10.50
2018-01-15T11:00:40.201Z,11.20
2018-01-15T11:03:08.457Z,11.12
2018-01-15T11:05:49.362Z,11.35
2018-01-15T11:14:35.351Z,10.20
2018-01-15T11:17:12.196Z,9.63
2018-01-15T11:19:41.552Z,11.80
2018-01-15T11:22:14.202Z,10.18
2018-01-15T11:24:49.025Z,10.40
2018-01-15T11:29:51.448Z,10.82
2018-01-15T11:32:23.088Z,10.02
2018-01-15T11:34:57.172Z,12.10
2018-01-15T11:40:17.871Z,10.18
2018-01-15T11:42:45.326Z,11.00
2018-01-15T11:45:17.642Z,9.60
2018-01-15T11:55:11.078Z,9.48
2018-01-15T11:57:43.991Z,9.60
2018-01-15T12:00:12.094Z,11.00
2018-01-15T12:23:53.691Z,9.77
2018-01-15T12:26:25.492Z,8.77
2018-01-15T12:28:54.754Z,9.68
2018-01-15T12:31:26.066Z,9.25
2018-01-15T12:33:54.518Z,10.07
2018-01-15T12:39:35.575Z,9.23
2018-01-15T12:42:03.805Z,9.70
2018-01-15T12:44:36.927Z,10.05
2018-01-15T12:47:05.307Z,8.02
2018-01-15T12:49:35.164Z,10.48
2018-01-15T12:52:10.817Z,9.32
2018-01-15T12:54:49.803Z,9.18
2018-01-15T12:59:51.289Z,8.50
2018-01-15T13:02:36.843Z,8.63
2018-01-15T13:05:05.483Z,7.68
2018-01-15T13:07:48.792Z,10.07
2018-01-15T13:10:16.679Z,8.15
2018-01-15T13:12:45.227Z,9.32
2018-01-15T13:15:13.942Z,9.45
2018-01-15T13:17:42.303Z,10.52
2018-01-15T13:20:11.311Z,9.75
2018-01-15T13:22:39.994Z,9.93
2018-01-15T13:25:09.936Z,8.88
2018-01-15T13:27:37.775Z,8.00
2018-01-15T13:30:08.518Z,8.52
2018-01-15T13:32:41.407Z,8.55
2018-01-15T13:35:12.532Z,8.75
2018-01-15T13:37:42.756Z,8.15
2018-01-15T13:40:14.446Z,8.25
2018-01-15T13:42:45.957Z,8.73
2018-01-15T13:45:16.986Z,7.55
2018-01-15T13:47:46.918Z,7.90
2018-01-15T13:50:15.965Z,7.30
2018-01-15T13:52:45.540Z,7.65
2018-01-15T13:55:17.470Z,7.15
2018-01-15T13:57:48.775Z,7.78
2018-01-15T14:03:09.006Z,8.15
2018-01-15T14:05:36.462Z,8.52
2018-01-15T14:08:09.991Z,7.62
2018-01-15T14:10:44.606Z,7.70
2018-01-15T14:13:21.597Z,6.70
2018-01-15T14:15:50.792Z,7.28
2018-01-15T14:18:18.827Z,8.73
2018-01-15T14:20:51.567Z,6.85
2018-01-15T14:23:19.442Z,7.70
2018-01-15T14:25:47.798Z,7.25
2018-01-15T14:28:15.791Z,7.50
2018-01-15T14:30:48.985Z,8.15
2018-01-15T14:33:19.014Z,6.87
2018-01-15T14:35:50.296Z,8.05
2018-01-15T14:38:17.713Z,6.10
2018-01-15T14:40:47.511Z,8.45
2018-01-15T14:43:16.495Z,6.43
2018-01-15T14:45:43.954Z,5.32
2018-01-15T14:48:13.225Z,5.65
2018-01-15T14:50:42.150Z,6.03
2018-01-15T14:53:11.728Z,5.50
2018-01-15T14:55:39.168Z,6.40
2018-01-15T14:58:13.643Z,4.78
2018-01-15T15:00:42.430Z,7.68
2018-01-15T15:03:10.503Z,6.15
2018-01-15T15:05:37.974Z,5.50
2018-01-15T15:08:06.194Z,5.25
2018-01-15T15:10:35.435Z,6.07
2018-01-15T15:13:05.343Z,6.00
2018-01-15T15:15:34.185Z,4.40
2018-01-15T15:18:02.062Z,5.60
2018-01-15T15:20:30.174Z,5.43
2018-01-15T15:22:58.308Z,6.62
2018-01-15T15:25:27.880Z,6.53
2018-01-15T15:27:55.819Z,6.37
2018-01-15T15:30:23.270Z,6.00
2018-01-15T15:32:51.072Z,5.47
2018-01-15T15:35:19.310Z,6.95
2018-01-15T15:37:48.062Z,5.85
2018-01-15T15:40:19.550Z,5.72
2018-01-15T16:16:01.672Z,7.07
2018-01-15T16:18:43.733Z,7.00
2018-01-15T16:30:32.294Z,7.20
2018-01-15T16:33:01.861Z,6.68
2018-01-15T16:35:31.503Z,7.25
2018-01-15T16:38:05.572Z,7.60
2018-01-15T16:40:33.822Z,8.00
2018-01-15T16:43:14.074Z,7.80
2018-01-15T16:45:47.467Z,7.50
2018-01-15T16:48:28.778Z,7.60
2018-01-15T16:50:58.590Z,9.15
2018-01-15T16:53:49.231Z,7.18
2018-01-15T16:56:43.649Z,7.97
2018-01-15T17:02:11.499Z,7.50
2018-01-15T17:04:59.176Z,7.72
2018-01-15T17:10:24.646Z,8.40
2018-01-15T17:12:54.978Z,6.25
2018-01-15T17:15:23.400Z,6.90
2018-01-15T17:23:40.439Z,7.60
2018-01-15T17:26:24.163Z,7.30
2018-01-15T17:28:57.370Z,6.50
2018-01-15T17:31:25.353Z,6.12
2018-01-15T17:36:27.434Z,7.35
2018-01-15T17:38:55.612Z,7.60
2018-01-15T17:41:25.682Z,7.15
2018-01-15T17:43:59.149Z,6.40
2018-01-15T17:46:39.079Z,5.97
2018-01-15T17:49:14.010Z,7.90
2018-01-15T17:51:57.030Z,5.95
2018-01-15T17:54:31.248Z,7.28
2018-01-15T17:57:02.895Z,6.45
2018-01-15T17:59:40.902Z,7.18
2018-01-15T18:02:13.173Z,8.57
2018-01-15T18:04:40.601Z,8.48
2018-01-15T18:07:08.858Z,6.90
2018-01-15T18:09:38.282Z,7.55
2018-01-15T18:12:06.872Z,6.20
2018-01-15T18:14:39.091Z,6.60
2018-01-15T18:17:12.187Z,6.35
2018-01-15T18:19:40.679Z,6.37
2018-01-15T18:22:12.491Z,6.68
2018-01-15T18:24:43.419Z,5.62
2018-01-15T18:27:11.535Z,6.50
2018-01-15T18:29:43.629Z,5.62
2018-01-15T18:32:18.372Z,6.68
2018-01-15T18:34:51.572Z,6.82
2018-01-15T18:37:19.619Z,6.68
2018-01-15T18:39:52.996Z,6.50
2018-01-15T18:49:25.259Z,6.68
2018-01-15T18:51:56.556Z,5.00
2018-01-15T18:54:31.981Z,7.37
2018-01-15T19:02:50.624Z,6.55
2018-01-15T19:11:06.867Z,5.95
2018-01-15T19:13:55.495Z,4.10
2018-01-15T19:16:23.260Z,5.75
2018-01-15T19:26:26.085Z,5.22
2018-01-15T19:28:53.770Z,4.68
2018-01-15T19:31:49.819Z,5.93
2018-01-15T19:37:10.753Z,5.35
